Airfield :
LOGIN :

Register | Disclaimer

   EN    FR    IT 

 










Legend :    VFR   Marginal VFR   IFR   Intensive IFR   Very Intensive IFR
Visi :
Ceiling :
>= 8 km
>= 3000ft
5 to 8 km
1000 to 3000 ft
1500m to 5 km
500 to 1000 ft
800 to 1500m
200 to 500 ft
< 800m
< 200 ft
Symbols :   Thunderstorms  Fog  Heavy snow  Heavy precipitations  Wind > 20 kt
SIGMETs :     Misc.  Thunderstorms  Icing  Turbulence  Mountain Waves  Volcanic Ashes






- Airport Elevation : 1300 ft
- IATA code : LIG


LFBL - Limoges

CURRENT METAR :
  • 130900Z AUTO 22004KT 170V270 9999 SCT025 16/11 Q1017 NOSIG

EXPIRED METARs :
  • 130830Z AUTO 23003KT 190V280 9999 SCT016 14/10 Q1017 NOSIG
  • 130800Z AUTO 23003KT 180V290 9999 BKN014 13/10 Q1017 BECMG BKN040
  • 130730Z AUTO 20003KT 160V260 9999 BKN012 13/10 Q1017 BECMG BKN040
  • 130700Z AUTO 28003KT 230V340 9999 BKN007 OVC012 12/10 Q1017 TEMPO BKN004
  • 130630Z AUTO 22004KT 180V280 9999 OVC005 11/10 Q1017 NOSIG
  • 130600Z AUTO 23003KT 200V270 9999 OVC003 11/10 Q1017 TEMPO BKN006
  • 130530Z AUTO VRB02KT 9999 OVC004 11/10 Q1017 TEMPO BKN006
  • 130500Z AUTO 19002KT 9999 BKN005 BKN020 BKN045 11/10 Q1017 TEMPO BKN010
  • 130430Z AUTO 19003KT 9999 FEW011 OVC046 10/10 Q1017 TEMPO BKN010

TAF AMD TAF LFBL
Valid from the 13 at 06:00 until the 14 at 06:00 UTC


130614Z 1306/1406 VRB03KT 9999 BKN040
TEMPO 1306/1309 BKN004
BECMG 1320/1322 04005KT
ATIS : +33 5 55 48 40 37



MET'MAP, your aeronautical weather chart ! - Copyright ORBIFLY December 2007 - Disclaimer

ORBIFLY MET'MAP TEAM :

Programming & Development : Alexandra Zaïnal
Original concept : Baudouin d'Aumeries
Technical & hardware support : Manuel Goepfert
Assistance : Marc-Olivier Méhu




SOURCES & CREDITS :

   NOAA